createdAt,value
2019-04-22T00:00:10.662Z,47.26
2019-04-22T00:01:21.512Z,47.25
2019-04-22T00:02:22.412Z,47.25
2019-04-22T00:03:36.028Z,47.28
2019-04-22T00:04:45.264Z,47.29
2019-04-22T00:05:58.823Z,47.30
2019-04-22T00:07:03.257Z,47.29
2019-04-22T00:08:11.673Z,47.23
2019-04-22T00:09:19.589Z,47.24
2019-04-22T00:10:26.506Z,47.23
2019-04-22T00:11:29.175Z,47.27
2019-04-22T00:12:34.615Z,47.24
2019-04-22T00:13:43.877Z,47.23
2019-04-22T00:14:35.103Z,47.22
2019-04-22T00:15:43.829Z,47.22
2019-04-22T00:16:51.824Z,47.24
2019-04-22T00:18:03.743Z,47.22
2019-04-22T00:19:15.451Z,47.25
2019-04-22T00:20:08.553Z,47.26
2019-04-22T00:21:16.059Z,47.26
2019-04-22T00:23:18.665Z,47.23
2019-04-22T00:24:23.977Z,47.22
2019-04-22T00:25:34.421Z,47.22
2019-04-22T00:26:37.885Z,47.21
2019-04-22T00:27:50.900Z,47.21
2019-04-22T00:28:52.178Z,47.20
2019-04-22T00:31:00.733Z,47.19
2019-04-22T00:32:16.133Z,47.19
2019-04-22T00:33:22.917Z,47.20
2019-04-22T00:34:22.869Z,47.17
2019-04-22T00:35:31.302Z,47.21
2019-04-22T00:36:36.659Z,47.17
2019-04-22T00:37:43.753Z,47.16
2019-04-22T00:38:51.591Z,47.21
2019-04-22T00:39:53.937Z,47.19
2019-04-22T00:41:01.947Z,47.18
2019-04-22T00:42:01.970Z,47.13
2019-04-22T00:43:07.032Z,47.12
2019-04-22T00:44:22.258Z,47.14
2019-04-22T00:45:19.359Z,47.13
2019-04-22T00:46:25.175Z,47.13
2019-04-22T00:48:32.257Z,47.12
2019-04-22T00:50:49.559Z,47.14
2019-04-22T00:51:52.624Z,47.13
2019-04-22T00:52:57.616Z,47.14
2019-04-22T00:53:57.521Z,47.17
2019-04-22T00:55:06.951Z,47.16
2019-04-22T00:57:15.433Z,47.14
2019-04-22T00:58:24.403Z,47.14
2019-04-22T00:59:23.572Z,47.13
2019-04-22T01:00:31.402Z,47.16
2019-04-22T01:01:37.289Z,47.16
2019-04-22T01:02:42.947Z,47.16
2019-04-22T01:03:50.498Z,47.16
2019-04-22T01:04:56.063Z,47.16
2019-04-22T01:05:55.398Z,47.16
2019-04-22T01:07:02.012Z,47.15
2019-04-22T01:08:07.048Z,47.16
2019-04-22T01:09:13.643Z,47.16
2019-04-22T01:10:20.622Z,47.17
2019-04-22T01:11:29.488Z,47.19
2019-04-22T01:12:26.545Z,47.16
2019-04-22T01:13:34.642Z,47.17
2019-04-22T01:14:35.286Z,47.16
2019-04-22T01:15:40.236Z,47.17
2019-04-22T01:16:50.882Z,47.19
2019-04-22T01:17:56.218Z,47.19
2019-04-22T01:18:55.440Z,47.17
2019-04-22T01:20:05.092Z,47.19
2019-04-22T01:22:13.689Z,47.17
2019-04-22T01:23:12.058Z,47.19
2019-04-22T01:24:19.381Z,47.17
2019-04-22T01:25:24.963Z,47.17
2019-04-22T01:26:27.135Z,47.21
2019-04-22T01:27:32.425Z,47.17
2019-04-22T01:28:30.132Z,47.20
2019-04-22T01:29:39.745Z,47.21
2019-04-22T01:30:38.363Z,47.20
2019-04-22T01:31:38.069Z,47.20
2019-04-22T01:32:43.978Z,47.20
2019-04-22T01:33:58.648Z,47.21
2019-04-22T01:35:05.046Z,47.21
2019-04-22T01:36:13.699Z,47.21
2019-04-22T01:37:20.290Z,47.21
2019-04-22T01:38:22.518Z,47.22
2019-04-22T01:39:39.038Z,47.22
2019-04-22T01:40:39.353Z,47.21
2019-04-22T01:42:57.564Z,47.20
2019-04-22T01:44:57.027Z,47.22
2019-04-22T01:46:08.004Z,47.20
2019-04-22T01:47:10.142Z,47.20
2019-04-22T01:48:17.640Z,47.19
2019-04-22T01:49:23.697Z,47.21
2019-04-22T01:50:26.310Z,47.21
2019-04-22T01:51:50.340Z,47.23
2019-04-22T01:52:41.649Z,47.21
2019-04-22T01:53:43.048Z,47.23
2019-04-22T01:55:03.880Z,47.21
2019-04-22T01:55:52.052Z,47.19
2019-04-22T01:57:02.141Z,47.19
2019-04-22T01:57:59.871Z,47.22
2019-04-22T01:58:58.950Z,47.18
2019-04-22T02:00:00.432Z,47.18
2019-04-22T02:01:22.338Z,47.20
2019-04-22T02:02:28.523Z,47.19
2019-04-22T02:03:31.149Z,47.20
2019-04-22T02:04:39.749Z,47.19
2019-04-22T02:05:37.608Z,47.19
2019-04-22T02:06:45.996Z,47.20
2019-04-22T02:07:51.572Z,47.19
2019-04-22T02:09:56.157Z,47.19
2019-04-22T02:11:04.207Z,47.18
2019-04-22T02:12:14.432Z,47.18
2019-04-22T02:13:15.431Z,47.18
2019-04-22T02:14:20.371Z,47.18
2019-04-22T02:15:23.458Z,47.22
2019-04-22T02:16:32.328Z,47.19
2019-04-22T02:18:42.696Z,47.18
2019-04-22T02:19:51.264Z,47.17
2019-04-22T02:21:01.688Z,47.17
2019-04-22T02:21:51.186Z,47.18
2019-04-22T02:23:15.954Z,47.17
2019-04-22T02:24:05.193Z,47.17
2019-04-22T02:25:08.483Z,47.16
2019-04-22T02:26:16.764Z,47.14
2019-04-22T02:27:30.670Z,47.15
2019-04-22T02:28:35.641Z,47.13
2019-04-22T02:29:31.325Z,47.16
2019-04-22T02:30:49.896Z,47.15
2019-04-22T02:31:44.172Z,47.14
2019-04-22T02:35:11.593Z,47.10
2019-04-22T02:37:04.971Z,47.13
2019-04-22T02:38:19.443Z,47.13
2019-04-22T02:39:16.150Z,47.11
2019-04-22T02:40:19.355Z,47.09
2019-04-22T02:42:49.258Z,47.09
2019-04-22T02:43:55.361Z,47.11
2019-04-22T02:44:47.097Z,47.12
2019-04-22T02:47:06.985Z,47.08
2019-04-22T02:47:58.528Z,47.10
2019-04-22T02:50:05.178Z,47.09
2019-04-22T02:51:17.102Z,47.09
2019-04-22T02:52:26.264Z,47.11
2019-04-22T02:53:45.052Z,47.08
2019-04-22T02:55:32.362Z,47.06
2019-04-22T02:59:57.124Z,47.07
2019-04-22T03:01:54.206Z,47.09
2019-04-22T03:03:20.675Z,47.10
2019-04-22T03:04:10.917Z,47.07
2019-04-22T03:05:19.583Z,47.07
2019-04-22T03:07:23.514Z,47.08
2019-04-22T03:08:51.207Z,47.09
2019-04-22T03:09:41.027Z,47.08
2019-04-22T03:11:59.216Z,47.07
2019-04-22T03:12:55.202Z,47.07
2019-04-22T03:15:05.962Z,47.06
2019-04-22T03:17:17.502Z,47.04
2019-04-22T03:19:34.029Z,47.04
2019-04-22T03:20:31.397Z,47.06
2019-04-22T03:21:34.332Z,47.01
2019-04-22T03:22:38.916Z,47.00
2019-04-22T03:23:55.849Z,47.01
2019-04-22T03:25:23.812Z,47.03
2019-04-22T03:27:02.797Z,47.02
2019-04-22T03:27:58.291Z,47.02
2019-04-22T03:29:28.145Z,46.99
2019-04-22T03:30:41.583Z,47.00
2019-04-22T03:31:34.447Z,47.00
2019-04-22T03:33:44.431Z,46.98
2019-04-22T03:35:41.739Z,46.99
2019-04-22T03:40:04.346Z,46.97
2019-04-22T03:41:13.346Z,46.94
2019-04-22T03:43:14.283Z,46.98
2019-04-22T03:46:32.597Z,46.97
2019-04-22T03:47:45.339Z,46.98
2019-04-22T03:48:47.324Z,46.96
2019-04-22T03:49:55.995Z,47.00
2019-04-22T03:50:42.422Z,46.97
2019-04-22T03:52:05.000Z,46.96
2019-04-22T03:53:15.415Z,46.97
2019-04-22T03:55:09.102Z,46.97
2019-04-22T03:56:47.506Z,46.97
2019-04-22T03:58:21.466Z,46.97
2019-04-22T04:00:45.502Z,46.98
2019-04-22T04:04:07.063Z,46.95
2019-04-22T04:04:51.852Z,46.96
2019-04-22T04:06:00.190Z,46.97
2019-04-22T04:10:37.104Z,46.99
2019-04-22T04:11:38.999Z,47.00
2019-04-22T04:12:43.479Z,46.98
2019-04-22T04:13:40.872Z,46.98
2019-04-22T04:15:05.204Z,46.97
2019-04-22T04:15:44.544Z,46.98
2019-04-22T04:17:02.388Z,46.97
2019-04-22T04:19:13.065Z,46.97
2019-04-22T04:20:26.272Z,46.97
2019-04-22T04:21:27.346Z,46.98
2019-04-22T04:22:33.962Z,46.96
2019-04-22T04:23:28.850Z,46.98
2019-04-22T04:25:46.746Z,46.98
2019-04-22T04:28:10.686Z,46.98
2019-04-22T04:31:00.880Z,46.98
2019-04-22T04:32:18.828Z,46.99
2019-04-22T04:33:24.967Z,46.97
2019-04-22T04:35:32.289Z,46.96
2019-04-22T04:36:28.681Z,46.98
2019-04-22T04:39:51.120Z,46.97
2019-04-22T04:41:01.942Z,46.94
2019-04-22T04:42:05.349Z,46.96
2019-04-22T04:42:54.111Z,46.96
2019-04-22T04:44:15.124Z,46.96
2019-04-22T04:45:31.670Z,46.97
2019-04-22T04:46:16.613Z,46.96
2019-04-22T04:47:35.645Z,46.96
2019-04-22T04:48:21.061Z,46.94
2019-04-22T04:49:36.673Z,46.94
2019-04-22T04:50:25.212Z,46.93
2019-04-22T04:53:53.494Z,46.94
2019-04-22T04:55:59.751Z,46.93
2019-04-22T04:56:55.972Z,46.93
2019-04-22T04:58:13.871Z,46.94
2019-04-22T04:59:28.143Z,46.94
2019-04-22T05:02:44.875Z,46.94
2019-04-22T05:03:46.665Z,46.93
2019-04-22T05:04:51.010Z,46.93
2019-04-22T05:05:39.791Z,46.94
2019-04-22T05:06:57.218Z,46.92
2019-04-22T05:10:27.067Z,46.94
2019-04-22T05:11:05.587Z,46.92
2019-04-22T05:13:10.357Z,46.93
2019-04-22T05:14:17.186Z,46.95
2019-04-22T05:15:27.014Z,46.93
2019-04-22T05:16:34.604Z,46.94
2019-04-22T05:18:44.661Z,46.92
2019-04-22T05:19:36.119Z,46.94
2019-04-22T05:20:59.978Z,46.93
2019-04-22T05:23:01.250Z,46.93
2019-04-22T05:24:10.775Z,46.92
2019-04-22T05:25:15.055Z,46.92
2019-04-22T05:26:26.026Z,46.92
2019-04-22T05:27:29.125Z,46.91
2019-04-22T05:28:24.192Z,46.93
2019-04-22T05:32:43.009Z,46.93
2019-04-22T05:33:51.470Z,46.91
2019-04-22T05:34:54.051Z,46.93
2019-04-22T05:36:03.061Z,46.93
2019-04-22T05:37:22.172Z,46.92
2019-04-22T05:38:11.328Z,46.92
2019-04-22T05:39:12.556Z,46.94
2019-04-22T05:41:26.563Z,46.94
2019-04-22T05:42:44.195Z,46.94
2019-04-22T05:43:34.357Z,46.95
2019-04-22T05:44:48.072Z,46.94
2019-04-22T05:45:40.543Z,46.92
2019-04-22T05:46:47.870Z,46.93
2019-04-22T05:47:52.375Z,46.95
2019-04-22T05:49:03.236Z,46.93
2019-04-22T05:50:06.449Z,46.95
2019-04-22T05:51:25.665Z,46.94
2019-04-22T05:52:14.915Z,46.95
2019-04-22T05:53:13.574Z,46.94
2019-04-22T05:54:27.855Z,46.94
2019-04-22T05:57:40.627Z,46.94
2019-04-22T05:58:56.585Z,46.95
2019-04-22T05:59:56.982Z,46.95
2019-04-22T06:01:21.842Z,46.96
2019-04-22T06:02:05.250Z,46.94
2019-04-22T06:03:07.245Z,46.95
2019-04-22T06:04:16.782Z,46.95
2019-04-22T06:05:17.271Z,46.94
2019-04-22T06:06:18.184Z,46.94
2019-04-22T06:07:26.574Z,46.95
2019-04-22T06:08:31.002Z,46.96
2019-04-22T06:09:32.350Z,46.96
2019-04-22T06:10:45.684Z,46.96
2019-04-22T06:11:41.120Z,46.94
2019-04-22T06:12:48.094Z,46.95
2019-04-22T06:13:52.020Z,46.94
2019-04-22T06:15:01.399Z,46.93
2019-04-22T06:16:01.926Z,46.94
2019-04-22T06:17:20.249Z,46.93
2019-04-22T06:18:22.809Z,46.95
2019-04-22T06:19:18.554Z,46.95
2019-04-22T06:20:35.144Z,46.96
2019-04-22T06:21:38.911Z,46.94
2019-04-22T06:22:44.998Z,46.95
2019-04-22T06:23:46.374Z,46.96
2019-04-22T06:24:57.946Z,46.95
2019-04-22T06:27:10.266Z,46.94
2019-04-22T06:28:13.572Z,46.95
2019-04-22T06:29:15.314Z,46.95
2019-04-22T06:30:19.115Z,46.94
2019-04-22T06:31:28.162Z,46.94
2019-04-22T06:33:53.252Z,46.95
2019-04-22T06:34:38.567Z,46.94
2019-04-22T06:35:56.387Z,46.94
2019-04-22T06:38:12.597Z,46.95
2019-04-22T06:38:55.206Z,46.95
2019-04-22T06:39:59.336Z,46.94
2019-04-22T06:41:10.493Z,46.93
2019-04-22T06:42:13.784Z,46.94
2019-04-22T06:43:26.255Z,46.94
2019-04-22T06:44:26.575Z,46.94
2019-04-22T06:45:23.488Z,46.94
2019-04-22T06:46:38.527Z,46.94
2019-04-22T06:48:56.297Z,46.93
2019-04-22T06:49:48.878Z,46.94
2019-04-22T06:52:01.203Z,46.94
2019-04-22T06:53:02.959Z,46.94
2019-04-22T06:54:07.833Z,46.94
2019-04-22T06:55:16.490Z,46.95
2019-04-22T06:56:16.870Z,46.94
2019-04-22T06:57:19.696Z,46.93
2019-04-22T06:58:44.038Z,46.93
2019-04-22T06:59:31.245Z,46.93
2019-04-22T07:00:40.378Z,46.94
2019-04-22T07:03:12.355Z,46.94
2019-04-22T07:03:54.146Z,46.94
2019-04-22T07:04:56.312Z,46.93
2019-04-22T07:06:20.155Z,46.92
2019-04-22T07:07:06.450Z,46.93
2019-04-22T07:08:34.371Z,46.93
2019-04-22T07:09:38.298Z,46.94
2019-04-22T07:10:30.197Z,46.94
2019-04-22T07:11:26.678Z,46.92
2019-04-22T07:12:31.932Z,46.94
2019-04-22T07:13:34.673Z,46.95
2019-04-22T07:14:47.032Z,46.94
2019-04-22T07:15:50.523Z,46.96
2019-04-22T07:16:54.508Z,47.04
2019-04-22T07:19:05.977Z,47.14
2019-04-22T07:20:04.313Z,47.10
2019-04-22T07:21:26.086Z,47.13
2019-04-22T07:22:19.850Z,47.14
2019-04-22T07:26:37.310Z,47.19
2019-04-22T07:27:46.008Z,47.19
2019-04-22T07:28:50.452Z,47.17
2019-04-22T07:31:05.639Z,47.22
2019-04-22T07:32:07.841Z,47.22
2019-04-22T07:34:24.916Z,47.26
2019-04-22T07:37:36.842Z,47.21
2019-04-22T07:38:32.794Z,47.24
2019-04-22T07:39:46.034Z,47.21
2019-04-22T07:40:50.405Z,47.21
2019-04-22T07:41:59.174Z,47.21
2019-04-22T07:43:04.414Z,47.20
2019-04-22T07:45:10.290Z,47.18
2019-04-22T07:46:13.739Z,47.14
2019-04-22T07:47:29.578Z,47.12
2019-04-22T07:48:35.770Z,47.10
2019-04-22T07:50:49.348Z,47.10
2019-04-22T07:52:46.939Z,47.12
2019-04-22T07:53:50.856Z,47.20
2019-04-22T07:54:58.375Z,47.19
2019-04-22T07:56:01.372Z,47.14
2019-04-22T07:57:15.349Z,47.12
2019-04-22T07:58:16.963Z,47.08
2019-04-22T07:59:18.617Z,47.08
2019-04-22T08:00:27.877Z,47.08
2019-04-22T08:01:28.102Z,47.07
2019-04-22T08:02:33.694Z,47.06
2019-04-22T08:03:47.709Z,47.07
2019-04-22T08:04:57.978Z,47.06
2019-04-22T08:05:58.565Z,47.04
2019-04-22T08:06:59.015Z,47.02
2019-04-22T08:08:07.235Z,47.05
2019-04-22T08:09:08.022Z,47.00
2019-04-22T08:10:17.197Z,47.01
2019-04-22T08:11:31.071Z,47.04
2019-04-22T08:12:20.298Z,47.01
2019-04-22T08:13:25.269Z,47.04
2019-04-22T08:14:35.846Z,47.01
2019-04-22T08:16:43.957Z,47.02
2019-04-22T08:18:52.658Z,47.04
2019-04-22T08:19:55.788Z,47.04
2019-04-22T08:20:58.672Z,47.04
2019-04-22T08:22:01.394Z,47.03
2019-04-22T08:23:09.391Z,46.99
2019-04-22T08:24:18.083Z,46.98
2019-04-22T08:25:17.366Z,46.98
2019-04-22T08:26:27.377Z,46.98
2019-04-22T08:27:30.425Z,46.99
2019-04-22T08:28:41.225Z,46.99
2019-04-22T08:29:46.064Z,46.96
2019-04-22T08:30:47.737Z,46.98
2019-04-22T08:32:53.170Z,46.97
2019-04-22T08:34:02.082Z,46.97
2019-04-22T08:35:04.585Z,47.04
2019-04-22T08:36:20.722Z,47.22
2019-04-22T08:37:41.609Z,47.20
2019-04-22T08:38:31.320Z,47.19
2019-04-22T08:39:34.559Z,47.13
2019-04-22T08:40:36.421Z,47.11
2019-04-22T08:41:43.571Z,47.14
2019-04-22T08:42:53.546Z,47.11
2019-04-22T08:44:02.340Z,47.09
2019-04-22T08:45:06.179Z,47.08
2019-04-22T08:45:57.015Z,47.11
2019-04-22T08:48:09.664Z,47.09
2019-04-22T08:49:13.048Z,47.09
2019-04-22T08:50:14.078Z,47.08
2019-04-22T08:52:31.861Z,47.06
2019-04-22T08:53:35.877Z,47.05
2019-04-22T08:54:36.231Z,47.02
2019-04-22T08:55:51.534Z,47.02
2019-04-22T08:57:06.708Z,47.03
2019-04-22T08:58:09.880Z,47.00
2019-04-22T08:59:04.715Z,47.01
2019-04-22T09:00:03.986Z,47.01
2019-04-22T09:01:11.629Z,46.98
2019-04-22T09:02:19.901Z,46.96
2019-04-22T09:03:18.770Z,46.97
2019-04-22T09:04:16.640Z,46.95
2019-04-22T09:05:44.877Z,46.96
2019-04-22T09:06:56.987Z,46.95
2019-04-22T09:07:38.399Z,46.94
2019-04-22T09:08:52.139Z,46.95
2019-04-22T09:09:50.652Z,46.92
2019-04-22T09:11:00.303Z,46.92
2019-04-22T09:11:59.896Z,46.90
2019-04-22T09:14:14.060Z,46.91
2019-04-22T09:15:18.310Z,46.91
2019-04-22T09:16:26.686Z,46.91
2019-04-22T09:17:35.125Z,46.89
2019-04-22T09:19:35.194Z,46.88
2019-04-22T09:20:40.440Z,46.83
2019-04-22T09:21:45.506Z,46.85
2019-04-22T09:22:53.971Z,46.84
2019-04-22T09:23:58.311Z,46.90
2019-04-22T09:24:58.611Z,46.90
2019-04-22T09:26:05.055Z,46.90
2019-04-22T09:27:10.210Z,46.85
2019-04-22T09:28:17.531Z,46.83
2019-04-22T09:30:34.323Z,46.88
2019-04-22T09:31:29.391Z,46.88
2019-04-22T09:32:38.871Z,46.88
2019-04-22T09:33:43.271Z,46.85
2019-04-22T09:34:47.569Z,46.87
2019-04-22T09:37:08.001Z,46.87
2019-04-22T09:38:18.952Z,46.85
2019-04-22T09:39:09.470Z,46.85
2019-04-22T09:40:17.167Z,46.82
2019-04-22T09:41:18.711Z,46.81
2019-04-22T09:42:24.071Z,46.83
2019-04-22T09:43:35.128Z,46.79
2019-04-22T09:44:36.286Z,46.82
2019-04-22T09:45:41.856Z,46.77
2019-04-22T09:46:47.038Z,46.77
2019-04-22T09:47:55.616Z,46.79
2019-04-22T09:49:00.309Z,46.78
2019-04-22T09:50:03.836Z,46.76
2019-04-22T09:51:07.026Z,46.75
2019-04-22T09:52:10.489Z,46.76
2019-04-22T09:53:22.727Z,46.75
2019-04-22T09:54:29.697Z,46.76
2019-04-22T09:55:24.368Z,46.72
2019-04-22T09:56:37.307Z,46.76
2019-04-22T09:57:38.330Z,46.78
2019-04-22T09:58:45.887Z,46.70
2019-04-22T09:59:50.706Z,46.70
2019-04-22T10:01:05.910Z,46.62
2019-04-22T10:02:14.659Z,46.68
2019-04-22T10:04:07.103Z,46.61
2019-04-22T10:05:11.528Z,46.68
2019-04-22T10:06:24.774Z,46.64
2019-04-22T10:07:25.722Z,46.68
2019-04-22T10:08:31.676Z,46.61
2019-04-22T10:10:49.074Z,46.55
2019-04-22T10:13:08.613Z,46.55
2019-04-22T10:13:56.844Z,46.49
2019-04-22T10:14:55.900Z,46.53
2019-04-22T10:16:08.066Z,46.46
2019-04-22T10:17:08.069Z,46.58
2019-04-22T10:18:12.768Z,46.51
2019-04-22T10:19:18.751Z,46.50
2019-04-22T10:20:27.004Z,46.48
2019-04-22T10:21:35.264Z,46.40
2019-04-22T10:23:40.968Z,46.37
2019-04-22T10:24:38.818Z,46.47
2019-04-22T10:25:54.094Z,46.45
2019-04-22T10:26:51.646Z,46.44
2019-04-22T10:28:06.858Z,46.40
2019-04-22T10:29:08.670Z,46.45
2019-04-22T10:30:04.480Z,46.34
2019-04-22T10:31:21.835Z,46.34
2019-04-22T10:32:20.553Z,46.38
2019-04-22T10:33:15.240Z,46.31
2019-04-22T10:34:16.758Z,46.33
2019-04-22T10:35:18.875Z,46.35
2019-04-22T10:36:19.522Z,46.35
2019-04-22T10:37:25.250Z,46.36
2019-04-22T10:38:28.389Z,46.35
2019-04-22T10:39:42.047Z,46.37
2019-04-22T10:40:40.789Z,46.34
2019-04-22T10:41:44.455Z,46.38
2019-04-22T10:42:49.301Z,46.36
2019-04-22T10:43:52.992Z,46.41
2019-04-22T10:44:57.267Z,46.38
2019-04-22T10:46:02.079Z,46.34
2019-04-22T10:47:06.441Z,46.31
2019-04-22T10:48:10.486Z,46.34
2019-04-22T10:49:14.116Z,46.34
2019-04-22T10:50:18.480Z,46.37
2019-04-22T10:51:22.347Z,46.38
2019-04-22T10:52:25.699Z,46.39
2019-04-22T10:53:29.305Z,46.37
2019-04-22T10:54:33.625Z,46.37
2019-04-22T10:55:40.069Z,46.37
2019-04-22T10:56:43.201Z,46.36
2019-04-22T10:57:46.373Z,46.36
2019-04-22T10:58:52.870Z,46.38
2019-04-22T10:59:56.747Z,46.38
2019-04-22T11:01:00.323Z,46.40
2019-04-22T11:02:03.804Z,46.41
2019-04-22T11:03:08.413Z,46.40
2019-04-22T11:04:11.594Z,46.36
2019-04-22T11:05:14.568Z,46.44
2019-04-22T11:06:19.177Z,46.42
2019-04-22T11:07:30.848Z,46.40
2019-04-22T11:08:37.986Z,46.43
2019-04-22T11:09:46.834Z,46.41
2019-04-22T11:10:59.082Z,46.43
2019-04-22T11:11:51.179Z,46.43
2019-04-22T11:12:49.347Z,46.43
2019-04-22T11:13:53.731Z,46.44
2019-04-22T11:14:58.187Z,46.41
2019-04-22T11:16:03.298Z,46.42
2019-04-22T11:17:08.861Z,46.40
2019-04-22T11:18:13.462Z,46.43
2019-04-22T11:19:17.319Z,46.43
2019-04-22T11:20:21.805Z,46.44
2019-04-22T11:21:25.323Z,46.41
2019-04-22T11:22:34.808Z,46.43
2019-04-22T11:23:36.479Z,46.44
2019-04-22T11:24:41.141Z,46.44
2019-04-22T11:25:45.927Z,46.44
2019-04-22T11:26:49.418Z,46.47
2019-04-22T11:27:53.736Z,46.44
2019-04-22T11:28:57.517Z,46.45
2019-04-22T11:30:01.867Z,46.45
2019-04-22T11:31:06.197Z,46.43
2019-04-22T11:32:10.517Z,46.44
2019-04-22T11:33:16.262Z,46.43
2019-04-22T11:34:19.682Z,46.42
2019-04-22T11:35:23.714Z,46.43
2019-04-22T11:36:30.604Z,46.43
2019-04-22T11:37:32.753Z,46.44
2019-04-22T11:38:38.941Z,46.44
2019-04-22T11:39:42.559Z,46.45
2019-04-22T11:40:50.471Z,46.46
2019-04-22T11:41:51.934Z,46.43
2019-04-22T11:42:56.508Z,46.44
2019-04-22T11:44:01.295Z,46.46
2019-04-22T11:45:05.586Z,46.44
2019-04-22T11:46:09.375Z,46.41
2019-04-22T11:47:12.686Z,46.39
2019-04-22T11:48:17.598Z,46.41
2019-04-22T11:49:21.863Z,46.41
2019-04-22T11:50:26.125Z,46.41
2019-04-22T11:51:30.150Z,46.44
2019-04-22T11:52:34.971Z,46.43
2019-04-22T11:53:38.669Z,46.41
2019-04-22T11:54:43.247Z,46.42
2019-04-22T11:55:46.840Z,46.41
2019-04-22T11:56:50.197Z,46.42
2019-04-22T11:57:54.064Z,46.39
2019-04-22T11:58:58.508Z,46.39
2019-04-22T12:00:03.275Z,46.38
2019-04-22T12:01:06.972Z,46.37
2019-04-22T12:02:11.040Z,46.37
2019-04-22T12:03:15.107Z,46.38
2019-04-22T12:04:20.019Z,46.37
2019-04-22T12:05:24.010Z,46.39
2019-04-22T12:06:28.122Z,46.39
2019-04-22T12:07:34.818Z,46.39
2019-04-22T12:08:37.386Z,46.37
2019-04-22T12:09:41.703Z,46.37
2019-04-22T12:10:51.709Z,46.37
2019-04-22T12:11:51.712Z,46.37
2019-04-22T12:12:55.541Z,46.37
2019-04-22T12:14:00.154Z,46.37
2019-04-22T12:15:04.184Z,46.33
2019-04-22T12:16:07.612Z,46.30
2019-04-22T12:17:11.375Z,46.31
2019-04-22T12:18:15.416Z,46.33
2019-04-22T12:19:20.928Z,46.32
2019-04-22T12:20:25.486Z,46.34
2019-04-22T12:21:29.110Z,46.31
2019-04-22T12:22:33.976Z,46.33
2019-04-22T12:23:39.156Z,46.31
2019-04-22T12:24:42.844Z,46.31
2019-04-22T12:25:54.538Z,46.31
2019-04-22T12:26:52.722Z,46.31
2019-04-22T12:27:57.027Z,46.34
2019-04-22T12:29:00.737Z,46.35
2019-04-22T12:30:04.968Z,46.32
2019-04-22T12:31:09.409Z,46.30
2019-04-22T12:32:13.605Z,46.30
2019-04-22T12:33:17.083Z,46.31
2019-04-22T12:34:21.520Z,46.30
2019-04-22T12:35:26.275Z,46.34
2019-04-22T12:36:30.698Z,46.26
2019-04-22T12:37:42.954Z,46.28
2019-04-22T12:38:39.891Z,46.27
2019-04-22T12:39:43.620Z,46.26
2019-04-22T12:40:53.142Z,46.27
2019-04-22T12:41:52.167Z,46.26
2019-04-22T12:42:57.632Z,46.28
2019-04-22T12:44:01.156Z,46.28
2019-04-22T12:45:04.797Z,46.27
2019-04-22T12:46:10.051Z,46.28
2019-04-22T12:47:14.841Z,46.28
2019-04-22T12:48:19.065Z,46.27
2019-04-22T12:49:22.726Z,46.27
2019-04-22T12:50:31.543Z,46.26
2019-04-22T12:51:33.280Z,46.27
2019-04-22T12:52:45.028Z,46.26
2019-04-22T12:53:42.232Z,46.26
2019-04-22T12:54:46.926Z,46.27
2019-04-22T12:55:50.480Z,46.26
2019-04-22T12:56:53.683Z,46.25
2019-04-22T12:58:00.524Z,46.24
2019-04-22T12:59:03.675Z,46.26
2019-04-22T13:00:08.350Z,46.23
2019-04-22T13:01:12.835Z,46.23
2019-04-22T13:02:16.281Z,46.24
2019-04-22T13:03:20.342Z,46.24
2019-04-22T13:04:30.045Z,46.24
2019-04-22T13:05:33.464Z,46.25
2019-04-22T13:06:37.579Z,46.26
2019-04-22T13:07:41.832Z,46.25
2019-04-22T13:08:45.787Z,46.21
2019-04-22T13:09:49.534Z,46.22
2019-04-22T13:11:02.241Z,46.21
2019-04-22T13:11:59.243Z,46.20
2019-04-22T13:13:02.888Z,46.21
2019-04-22T13:14:07.169Z,46.24
2019-04-22T13:15:11.793Z,46.22
2019-04-22T13:16:17.826Z,46.21
2019-04-22T13:17:21.302Z,46.21
2019-04-22T13:18:36.928Z,46.23
2019-04-22T13:19:30.247Z,46.26
2019-04-22T13:20:34.533Z,46.23
2019-04-22T13:21:38.494Z,46.23
2019-04-22T13:22:43.026Z,46.23
2019-04-22T13:23:50.705Z,46.23
2019-04-22T13:24:54.445Z,46.21
2019-04-22T13:25:59.014Z,46.20
2019-04-22T13:27:03.316Z,46.18
2019-04-22T13:28:07.218Z,46.23
2019-04-22T13:29:10.932Z,46.22
2019-04-22T13:30:16.435Z,46.23
2019-04-22T13:31:20.866Z,46.36
2019-04-22T13:32:25.112Z,47.43
2019-04-22T13:33:28.741Z,47.52
2019-04-22T13:34:39.813Z,47.75
2019-04-22T13:35:37.456Z,47.82
2019-04-22T13:36:43.577Z,47.85
2019-04-22T13:37:46.787Z,47.92
2019-04-22T13:38:51.292Z,47.88
2019-04-22T13:39:54.803Z,47.95
2019-04-22T13:41:12.524Z,47.93
2019-04-22T13:42:06.005Z,47.90
2019-04-22T13:43:09.073Z,47.94
2019-04-22T13:44:12.873Z,48.00
2019-04-22T13:45:17.907Z,48.00
2019-04-22T13:46:21.957Z,48.04
2019-04-22T13:47:42.354Z,48.00
2019-04-22T13:48:52.797Z,48.01
2019-04-22T13:51:15.113Z,48.06
2019-04-22T13:52:22.632Z,48.19
2019-04-22T13:54:01.901Z,48.06
2019-04-22T13:55:32.720Z,48.19
2019-04-22T13:56:24.812Z,48.23
2019-04-22T13:57:41.466Z,48.28
2019-04-22T13:58:51.769Z,48.28
2019-04-22T13:59:44.612Z,48.35
2019-04-22T14:00:44.682Z,48.31
2019-04-22T14:02:06.335Z,48.30
2019-04-22T14:03:41.158Z,48.28
2019-04-22T14:04:46.503Z,48.49
2019-04-22T14:05:51.171Z,48.48
2019-04-22T14:06:54.996Z,48.48
2019-04-22T14:08:00.795Z,48.49
2019-04-22T14:09:05.199Z,48.46
2019-04-22T14:11:43.441Z,48.51
2019-04-22T14:12:37.307Z,48.56
2019-04-22T14:13:41.888Z,48.49
2019-04-22T14:14:46.144Z,48.58
2019-04-22T14:15:50.892Z,48.58
2019-04-22T14:16:56.506Z,48.47
2019-04-22T14:18:00.976Z,48.61
2019-04-22T14:19:07.771Z,48.68
2019-04-22T14:20:10.913Z,48.65
2019-04-22T14:21:14.967Z,48.73
2019-04-22T14:22:19.936Z,48.73
2019-04-22T14:23:28.679Z,48.69
2019-04-22T14:24:32.570Z,48.76
2019-04-22T14:25:36.814Z,48.72
2019-04-22T14:26:52.412Z,48.69
2019-04-22T14:27:52.399Z,48.77
2019-04-22T14:28:50.914Z,48.73
2019-04-22T14:29:55.659Z,48.82
2019-04-22T14:31:00.397Z,48.74
2019-04-22T14:32:13.245Z,48.75
2019-04-22T14:33:12.172Z,48.75
2019-04-22T14:34:18.809Z,48.78
2019-04-22T14:35:25.009Z,48.86
2019-04-22T14:36:29.732Z,48.83
2019-04-22T14:37:36.382Z,48.74
2019-04-22T14:38:41.731Z,48.86
2019-04-22T14:39:46.570Z,48.77
2019-04-22T14:40:52.072Z,48.83
2019-04-22T14:43:22.763Z,48.79
2019-04-22T14:44:12.634Z,48.81
2019-04-22T14:45:43.912Z,48.86
2019-04-22T14:46:38.996Z,48.95
2019-04-22T14:47:49.534Z,48.84
2019-04-22T14:48:49.668Z,48.92
2019-04-22T14:49:56.035Z,48.90
2019-04-22T14:50:55.913Z,48.95
2019-04-22T14:52:10.319Z,49.08
2019-04-22T14:53:11.233Z,49.26
2019-04-22T14:54:10.083Z,49.19
2019-04-22T14:55:05.958Z,49.44
2019-04-22T14:56:04.402Z,49.45
2019-04-22T14:57:08.131Z,49.43
2019-04-22T14:58:12.955Z,49.24
2019-04-22T14:59:16.793Z,49.22
2019-04-22T15:00:22.039Z,49.10
2019-04-22T15:01:26.672Z,49.10
2019-04-22T15:02:31.863Z,49.06
2019-04-22T15:03:38.775Z,49.03
2019-04-22T15:04:43.036Z,49.05
2019-04-22T15:05:48.171Z,48.97
2019-04-22T15:06:52.743Z,48.99
2019-04-22T15:07:57.505Z,48.98
2019-04-22T15:09:01.865Z,48.79
2019-04-22T15:10:06.103Z,48.94
2019-04-22T15:11:10.863Z,48.92
2019-04-22T15:12:21.711Z,48.98
2019-04-22T15:13:21.093Z,48.89
2019-04-22T15:14:25.656Z,48.82
2019-04-22T15:15:46.975Z,48.82
2019-04-22T15:17:04.750Z,48.79
2019-04-22T15:18:21.861Z,48.74
2019-04-22T15:19:33.853Z,48.77
2019-04-22T15:20:52.356Z,48.71
2019-04-22T15:21:56.515Z,48.64
2019-04-22T15:23:00.266Z,48.58
2019-04-22T15:24:22.958Z,48.52
2019-04-22T15:25:26.621Z,48.43
2019-04-22T15:26:30.667Z,48.46
2019-04-22T15:27:35.182Z,48.38
2019-04-22T15:28:39.588Z,48.37
2019-04-22T15:29:43.215Z,48.28
2019-04-22T15:30:47.719Z,48.28
2019-04-22T15:31:51.653Z,48.23
2019-04-22T15:32:55.285Z,48.23
2019-04-22T15:33:58.539Z,48.18
2019-04-22T15:35:04.977Z,48.04
2019-04-22T15:36:09.909Z,48.06
2019-04-22T15:37:13.959Z,48.02
2019-04-22T15:38:19.334Z,48.00
2019-04-22T15:39:23.140Z,47.94
2019-04-22T15:40:26.912Z,47.96
2019-04-22T15:41:30.635Z,47.92
2019-04-22T15:42:38.337Z,47.91
2019-04-22T15:43:39.534Z,47.87
2019-04-22T15:44:44.197Z,47.80
2019-04-22T15:45:48.478Z,47.80
2019-04-22T15:46:53.214Z,47.78
2019-04-22T15:47:57.903Z,47.75